Chapelhall, United Kingdom
Current Conditions -  °F | °C
As of 6:50 AM on Thursday 23 Oct 2014 (Local Time) from EGPF Reporting Station
Light Rain Light Rain  
Wind Chill: 54°   Ceiling: 800
Heat Index: 54°   Visibility: 2.3mi
Dew Point: 52°   Wind: 18mph
Humidity: 94%   Direction: 220°SW
Pressure: 29.8"   Gusts: NA
Location:  55.84°N, 3.95°W
Report Text: EGPF 230550Z AUTO 22016KT 3700 -RA BKN008/// OVC039/// //////TCU 12/11 Q1009 RERA
Loading
Personal Weather Stations






























Interactive Weather Map
Tropical Storm Tracking
New forecast layout! Learn more

10-Day Weather Forecast

Advertisements
Track Severe Weather on mobile